createdAt,value
2019-02-06T00:00:37.400Z,1007.54
2019-02-06T00:01:37.402Z,1007.54
2019-02-06T00:02:37.408Z,1007.63
2019-02-06T00:03:37.377Z,1007.54
2019-02-06T00:04:37.384Z,1007.61
2019-02-06T00:05:37.386Z,1007.62
2019-02-06T00:06:37.330Z,1007.62
2019-02-06T00:07:37.350Z,1007.61
2019-02-06T00:08:37.347Z,1007.59
2019-02-06T00:09:37.300Z,1007.69
2019-02-06T00:10:37.308Z,1007.66
2019-02-06T00:11:37.279Z,1007.62
2019-02-06T00:12:37.280Z,1007.67
2019-02-06T00:13:37.280Z,1007.63
2019-02-06T00:14:37.383Z,1007.67
2019-02-06T00:15:37.249Z,1007.67
2019-02-06T00:16:37.251Z,1007.68
2019-02-06T00:17:37.220Z,1007.66
2019-02-06T00:18:37.226Z,1007.69
2019-02-06T00:19:37.198Z,1007.62
2019-02-06T00:20:37.209Z,1007.64
2019-02-06T00:21:37.177Z,1007.63
2019-02-06T00:22:37.162Z,1007.61
2019-02-06T00:23:37.147Z,1007.61
2019-02-06T00:24:37.142Z,1007.59
2019-02-06T00:25:37.134Z,1007.57
2019-02-06T00:26:37.161Z,1007.61
2019-02-06T00:27:37.153Z,1007.55
2019-02-06T00:28:37.093Z,1007.55
2019-02-06T00:29:37.086Z,1007.54
2019-02-06T00:30:37.093Z,1007.52
2019-02-06T00:31:37.062Z,1007.60
2019-02-06T00:32:37.099Z,1007.66
2019-02-06T00:33:37.041Z,1007.66
2019-02-06T00:34:37.030Z,1007.64
2019-02-06T00:35:37.027Z,1007.66
2019-02-06T00:36:37.022Z,1007.62
2019-02-06T00:37:37.022Z,1007.58
2019-02-06T00:38:37.080Z,1007.61
2019-02-06T00:39:36.983Z,1007.61
2019-02-06T00:40:36.993Z,1007.59
2019-02-06T00:41:36.959Z,1007.59
2019-02-06T00:42:36.974Z,1007.62
2019-02-06T00:43:36.940Z,1007.54
2019-02-06T00:44:36.975Z,1007.53
2019-02-06T00:45:36.928Z,1007.58
2019-02-06T00:46:36.903Z,1007.59
2019-02-06T00:47:36.893Z,1007.56
2019-02-06T00:48:36.883Z,1007.50
2019-02-06T00:49:36.869Z,1007.60
2019-02-06T00:50:36.951Z,1007.56
2019-02-06T00:51:36.864Z,1007.55
2019-02-06T00:52:36.856Z,1007.56
2019-02-06T00:53:36.833Z,1007.53
2019-02-06T00:54:36.827Z,1007.57
2019-02-06T00:55:36.821Z,1007.54
2019-02-06T00:56:36.833Z,1007.47
2019-02-06T00:57:36.812Z,1007.42
2019-02-06T00:58:36.827Z,1007.48
2019-02-06T00:59:36.768Z,1007.40
2019-02-06T01:00:36.759Z,1007.46
2019-02-06T01:01:36.763Z,1007.46
2019-02-06T01:02:36.773Z,1007.44
2019-02-06T01:03:36.743Z,1007.46
2019-02-06T01:04:36.716Z,1007.46
2019-02-06T01:05:38.721Z,1007.46
2019-02-06T01:06:36.708Z,1007.47
2019-02-06T01:07:36.699Z,1007.45
2019-02-06T01:08:36.823Z,1007.40
2019-02-06T01:09:36.654Z,1007.39
2019-02-06T01:10:36.647Z,1007.44
2019-02-06T01:11:36.645Z,1007.39
2019-02-06T01:12:36.646Z,1007.47
2019-02-06T01:13:36.618Z,1007.44
2019-02-06T01:14:36.641Z,1007.41
2019-02-06T01:15:36.600Z,1007.41
2019-02-06T01:16:36.589Z,1007.37
2019-02-06T01:17:36.581Z,1007.38
2019-02-06T01:18:36.559Z,1007.39
2019-02-06T01:19:36.568Z,1007.32
2019-02-06T01:20:36.582Z,1007.34
2019-02-06T01:21:36.532Z,1007.34
2019-02-06T01:22:36.528Z,1007.33
2019-02-06T01:23:36.522Z,1007.42
2019-02-06T01:24:36.501Z,1007.39
2019-02-06T01:25:36.518Z,1007.40
2019-02-06T01:26:36.506Z,1007.39
2019-02-06T01:27:36.474Z,1007.36
2019-02-06T01:28:36.455Z,1007.33
2019-02-06T01:29:36.460Z,1007.41
2019-02-06T01:30:36.447Z,1007.36
2019-02-06T01:31:36.427Z,1007.39
2019-02-06T01:32:36.503Z,1007.38
2019-02-06T01:33:36.403Z,1007.40
2019-02-06T01:34:36.391Z,1007.34
2019-02-06T01:35:36.381Z,1007.37
2019-02-06T01:36:36.381Z,1007.39
2019-02-06T01:37:36.418Z,1007.37
2019-02-06T01:38:36.444Z,1007.38
2019-02-06T01:39:36.347Z,1007.38
2019-02-06T01:40:36.345Z,1007.31
2019-02-06T01:41:36.320Z,1007.28
2019-02-06T01:42:36.318Z,1007.28
2019-02-06T01:43:36.302Z,1007.31
2019-02-06T01:44:36.335Z,1007.24
2019-02-06T01:45:36.277Z,1007.25
2019-02-06T01:46:36.290Z,1007.34
2019-02-06T01:47:36.285Z,1007.26
2019-02-06T01:48:36.253Z,1007.23
2019-02-06T01:49:36.238Z,1007.26
2019-02-06T01:50:36.409Z,1007.20
2019-02-06T01:51:36.221Z,1007.17
2019-02-06T01:52:36.198Z,1007.17
2019-02-06T01:53:36.201Z,1007.15
2019-02-06T01:54:36.198Z,1007.12
2019-02-06T01:55:36.187Z,1007.17
2019-02-06T01:56:36.262Z,1007.14
2019-02-06T01:57:36.147Z,1007.12
2019-02-06T01:58:36.143Z,1007.16
2019-02-06T01:59:36.133Z,1007.20
2019-02-06T02:00:36.128Z,1007.17
2019-02-06T02:01:36.106Z,1007.18
2019-02-06T02:02:36.131Z,1007.16
2019-02-06T02:03:36.091Z,1007.18
2019-02-06T02:04:36.075Z,1007.17
2019-02-06T02:05:37.975Z,1007.14
2019-02-06T02:06:36.066Z,1007.09
2019-02-06T02:07:36.040Z,1007.10
2019-02-06T02:08:36.073Z,1007.08
2019-02-06T02:09:36.036Z,1007.09
2019-02-06T02:10:36.026Z,1007.12
2019-02-06T02:11:36.001Z,1007.12
2019-02-06T02:12:35.998Z,1007.16
2019-02-06T02:13:35.979Z,1007.12
2019-02-06T02:14:36.135Z,1007.11
2019-02-06T02:15:35.983Z,1007.09
2019-02-06T02:16:35.948Z,1007.09
2019-02-06T02:17:35.958Z,1007.07
2019-02-06T02:18:35.938Z,1007.08
2019-02-06T02:19:35.918Z,1007.01
2019-02-06T02:20:35.985Z,1007.00
2019-02-06T02:21:35.907Z,1007.04
2019-02-06T02:22:35.895Z,1006.99
2019-02-06T02:23:35.883Z,1006.98
2019-02-06T02:24:35.868Z,1006.99
2019-02-06T02:25:35.857Z,1006.97
2019-02-06T02:26:35.879Z,1006.92
2019-02-06T02:27:35.916Z,1006.91
2019-02-06T02:28:35.827Z,1006.96
2019-02-06T02:29:35.808Z,1006.98
2019-02-06T02:30:35.806Z,1006.95
2019-02-06T02:31:35.788Z,1006.92
2019-02-06T02:32:35.828Z,1006.90
2019-02-06T02:33:35.768Z,1006.85
2019-02-06T02:34:35.760Z,1006.86
2019-02-06T02:35:35.784Z,1006.84
2019-02-06T02:36:35.760Z,1006.80
2019-02-06T02:37:35.823Z,1006.78
2019-02-06T02:38:35.743Z,1006.78
2019-02-06T02:39:35.709Z,1006.80
2019-02-06T02:40:35.709Z,1006.78
2019-02-06T02:41:35.681Z,1006.75
2019-02-06T02:42:35.681Z,1006.72
2019-02-06T02:43:35.660Z,1006.74
2019-02-06T02:44:35.688Z,1006.71
2019-02-06T02:45:35.650Z,1006.74
2019-02-06T02:46:35.632Z,1006.70
2019-02-06T02:47:35.620Z,1006.68
2019-02-06T02:48:35.601Z,1006.66
2019-02-06T02:49:35.589Z,1006.61
2019-02-06T02:50:35.780Z,1006.68
2019-02-06T02:51:35.591Z,1006.63
2019-02-06T02:52:35.579Z,1006.58
2019-02-06T02:53:35.571Z,1006.55
2019-02-06T02:54:35.559Z,1006.56
2019-02-06T02:55:35.539Z,1006.53
2019-02-06T02:56:35.567Z,1006.54
2019-02-06T02:57:35.533Z,1006.49
2019-02-06T02:58:35.507Z,1006.43
2019-02-06T02:59:35.496Z,1006.40
2019-02-06T03:00:35.489Z,1006.36
2019-02-06T03:01:35.481Z,1006.35
2019-02-06T03:02:35.646Z,1006.34
2019-02-06T03:03:35.473Z,1006.28
2019-02-06T03:04:35.439Z,1006.24
2019-02-06T03:05:35.436Z,1006.26
2019-02-06T03:06:35.433Z,1006.25
2019-02-06T03:07:35.430Z,1006.23
2019-02-06T03:08:35.471Z,1006.21
2019-02-06T03:09:35.386Z,1006.21
2019-02-06T03:10:35.385Z,1006.22
2019-02-06T03:11:35.377Z,1006.21
2019-02-06T03:12:35.365Z,1006.24
2019-02-06T03:13:35.340Z,1006.27
2019-02-06T03:14:35.396Z,1006.25
2019-02-06T03:15:35.317Z,1006.26
2019-02-06T03:16:35.309Z,1006.25
2019-02-06T03:17:35.301Z,1006.15
2019-02-06T03:18:35.294Z,1006.16
2019-02-06T03:19:35.274Z,1006.16
2019-02-06T03:20:35.426Z,1006.09
2019-02-06T03:21:35.260Z,1006.11
2019-02-06T03:22:35.263Z,1006.09
2019-02-06T03:23:35.246Z,1006.09
2019-02-06T03:24:35.232Z,1006.05
2019-02-06T03:25:35.220Z,1006.08
2019-02-06T03:26:35.296Z,1006.08
2019-02-06T03:27:35.234Z,1006.05
2019-02-06T03:28:35.190Z,1006.03
2019-02-06T03:29:35.179Z,1005.98
2019-02-06T03:30:35.176Z,1005.98
2019-02-06T03:31:35.155Z,1005.99
2019-02-06T03:32:35.202Z,1006.03
2019-02-06T03:33:35.160Z,1005.99
2019-02-06T03:34:35.136Z,1006.00
2019-02-06T03:35:35.113Z,1006.01
2019-02-06T03:36:40.453Z,1005.96
2019-02-06T03:37:36.162Z,1005.93
2019-02-06T03:38:35.079Z,1006.01
2019-02-06T03:39:35.070Z,1005.95
2019-02-06T03:40:35.054Z,1005.92
2019-02-06T03:41:35.042Z,1005.95
2019-02-06T03:42:35.027Z,1005.89
2019-02-06T03:43:35.069Z,1005.92
2019-02-06T03:44:35.144Z,1005.90
2019-02-06T03:45:35.001Z,1005.95
2019-02-06T03:46:35.007Z,1005.91
2019-02-06T03:47:34.986Z,1005.84
2019-02-06T03:48:35.002Z,1005.89
2019-02-06T03:49:34.997Z,1005.85
2019-02-06T03:50:34.954Z,1005.84
2019-02-06T03:51:34.963Z,1005.86
2019-02-06T03:52:34.934Z,1005.77
2019-02-06T03:53:34.927Z,1005.77
2019-02-06T03:54:34.916Z,1005.73
2019-02-06T03:55:34.959Z,1005.71
2019-02-06T03:56:34.902Z,1005.71
2019-02-06T03:57:34.876Z,1005.69
2019-02-06T03:58:34.866Z,1005.69
2019-02-06T03:59:34.855Z,1005.70
2019-02-06T04:00:34.880Z,1005.77
2019-02-06T04:01:34.882Z,1005.77
2019-02-06T04:02:34.842Z,1005.76
2019-02-06T04:03:34.810Z,1005.80
2019-02-06T04:04:34.797Z,1005.83
2019-02-06T04:05:34.826Z,1005.87
2019-02-06T04:06:34.789Z,1005.84
2019-02-06T04:07:34.812Z,1005.79
2019-02-06T04:08:34.763Z,1005.81
2019-02-06T04:09:34.743Z,1005.80
2019-02-06T04:10:34.738Z,1005.80
2019-02-06T04:11:34.758Z,1005.76
2019-02-06T04:12:34.713Z,1005.78
2019-02-06T04:13:34.899Z,1005.78
2019-02-06T04:14:34.702Z,1005.75
2019-02-06T04:15:34.681Z,1005.78
2019-02-06T04:16:34.677Z,1005.72
2019-02-06T04:17:34.663Z,1005.75
2019-02-06T04:18:34.654Z,1005.75
2019-02-06T04:19:34.671Z,1005.72
2019-02-06T04:20:34.628Z,1005.72
2019-02-06T04:21:34.612Z,1005.67
2019-02-06T04:22:34.634Z,1005.67
2019-02-06T04:23:34.593Z,1005.69
2019-02-06T04:24:34.587Z,1005.64
2019-02-06T04:25:34.615Z,1005.66
2019-02-06T04:26:34.589Z,1005.69
2019-02-06T04:27:34.586Z,1005.62
2019-02-06T04:28:34.554Z,1005.63
2019-02-06T04:29:34.611Z,1005.61
2019-02-06T04:30:34.517Z,1005.64
2019-02-06T04:31:34.802Z,1005.58
2019-02-06T04:32:34.509Z,1005.60
2019-02-06T04:33:34.485Z,1005.61
2019-02-06T04:34:34.482Z,1005.57
2019-02-06T04:35:34.473Z,1005.61
2019-02-06T04:36:34.467Z,1005.66
2019-02-06T04:37:34.623Z,1005.59
2019-02-06T04:38:34.430Z,1005.56
2019-02-06T04:39:34.427Z,1005.64
2019-02-06T04:40:34.408Z,1005.58
2019-02-06T04:41:34.398Z,1005.58
2019-02-06T04:42:34.488Z,1005.62
2019-02-06T04:43:34.404Z,1005.53
2019-02-06T04:44:34.385Z,1005.56
2019-02-06T04:45:34.366Z,1005.57
2019-02-06T04:46:34.344Z,1005.60
2019-02-06T04:47:34.348Z,1005.65
2019-02-06T04:48:34.322Z,1005.54
2019-02-06T04:49:34.364Z,1005.54
2019-02-06T04:50:34.301Z,1005.56
2019-02-06T04:51:34.296Z,1005.46
2019-02-06T04:52:34.291Z,1005.48
2019-02-06T04:53:34.283Z,1005.51
2019-02-06T04:54:34.290Z,1005.54
2019-02-06T04:55:34.338Z,1005.48
2019-02-06T04:56:34.277Z,1005.52
2019-02-06T04:57:34.247Z,1005.46
2019-02-06T04:58:34.226Z,1005.44
2019-02-06T04:59:34.219Z,1005.40
2019-02-06T05:00:34.197Z,1005.49
2019-02-06T05:01:34.230Z,1005.46
2019-02-06T05:02:34.186Z,1005.46
2019-02-06T05:03:34.165Z,1005.41
2019-02-06T05:04:34.152Z,1005.46
2019-02-06T05:05:34.155Z,1005.52
2019-02-06T05:06:34.135Z,1005.51
2019-02-06T05:07:34.179Z,1005.54
2019-02-06T05:08:34.111Z,1005.53
2019-02-06T05:09:34.102Z,1005.48
2019-02-06T05:10:34.113Z,1005.50
2019-02-06T05:11:34.077Z,1005.48
2019-02-06T05:12:34.071Z,1005.46
2019-02-06T05:13:34.093Z,1005.46
2019-02-06T05:14:34.054Z,1005.48
2019-02-06T05:15:34.038Z,1005.38
2019-02-06T05:16:34.034Z,1005.40
2019-02-06T05:17:34.016Z,1005.39
2019-02-06T05:18:34.007Z,1005.43
2019-02-06T05:19:34.031Z,1005.42
2019-02-06T05:20:33.985Z,1005.37
2019-02-06T05:21:34.006Z,1005.36
2019-02-06T05:22:33.973Z,1005.26
2019-02-06T05:23:33.952Z,1005.32
2019-02-06T05:24:33.944Z,1005.30
2019-02-06T05:25:34.075Z,1005.22
2019-02-06T05:26:33.938Z,1005.25
2019-02-06T05:27:33.915Z,1005.21
2019-02-06T05:28:33.914Z,1005.20
2019-02-06T05:29:33.889Z,1005.22
2019-02-06T05:30:33.881Z,1005.23
2019-02-06T05:31:33.895Z,1005.20
2019-02-06T05:32:33.913Z,1005.19
2019-02-06T05:33:33.845Z,1005.19
2019-02-06T05:34:33.849Z,1005.12
2019-02-06T05:35:33.824Z,1005.13
2019-02-06T05:36:33.812Z,1005.15
2019-02-06T05:37:33.846Z,1005.15
2019-02-06T05:38:33.795Z,1005.26
2019-02-06T05:39:33.794Z,1005.25
2019-02-06T05:40:33.781Z,1005.21
2019-02-06T05:41:33.764Z,1005.21
2019-02-06T05:42:33.752Z,1005.22
2019-02-06T05:43:33.787Z,1005.14
2019-02-06T05:44:33.733Z,1005.17
2019-02-06T05:45:33.720Z,1005.08
2019-02-06T05:46:33.715Z,1005.01
2019-02-06T05:47:33.742Z,1004.97
2019-02-06T05:48:33.685Z,1005.05
2019-02-06T05:49:33.710Z,1005.00
2019-02-06T05:50:33.664Z,1004.92
2019-02-06T05:51:33.653Z,1004.98
2019-02-06T05:52:33.653Z,1004.97
2019-02-06T05:53:33.690Z,1004.98
2019-02-06T05:54:33.628Z,1005.00
2019-02-06T05:55:33.662Z,1004.98
2019-02-06T05:56:33.613Z,1004.95
2019-02-06T05:57:33.596Z,1004.97
2019-02-06T05:58:33.590Z,1004.97
2019-02-06T05:59:33.567Z,1004.95
2019-02-06T06:00:33.559Z,1004.93
2019-02-06T06:01:33.604Z,1004.95
2019-02-06T06:02:33.537Z,1004.95
2019-02-06T06:03:33.528Z,1004.94
2019-02-06T06:04:33.524Z,1004.94
2019-02-06T06:05:33.503Z,1004.93
2019-02-06T06:06:33.495Z,1004.93
2019-02-06T06:07:44.797Z,1004.94
2019-02-06T06:08:34.484Z,1004.97
2019-02-06T06:09:33.646Z,1004.97
2019-02-06T06:10:33.487Z,1004.89
2019-02-06T06:11:33.459Z,1004.94
2019-02-06T06:12:33.436Z,1004.94
2019-02-06T06:13:33.478Z,1004.91
2019-02-06T06:14:33.412Z,1004.91
2019-02-06T06:15:33.401Z,1004.93
2019-02-06T06:16:33.402Z,1004.94
2019-02-06T06:17:33.387Z,1004.92
2019-02-06T06:18:33.380Z,1004.95
2019-02-06T06:19:33.421Z,1004.92
2019-02-06T06:20:33.351Z,1004.88
2019-02-06T06:21:33.335Z,1004.90
2019-02-06T06:22:33.334Z,1004.83
2019-02-06T06:23:33.313Z,1004.77
2019-02-06T06:24:33.311Z,1004.81
2019-02-06T06:25:33.322Z,1004.80
2019-02-06T06:26:33.288Z,1004.70
2019-02-06T06:27:33.270Z,1004.72
2019-02-06T06:28:33.270Z,1004.71
2019-02-06T06:29:33.249Z,1004.71
2019-02-06T06:30:33.243Z,1004.69
2019-02-06T06:31:33.270Z,1004.72
2019-02-06T06:32:33.222Z,1004.74
2019-02-06T06:33:33.208Z,1004.65
2019-02-06T06:34:33.207Z,1004.66
2019-02-06T06:35:33.205Z,1004.53
2019-02-06T06:36:33.177Z,1004.57
2019-02-06T06:37:33.229Z,1004.49
2019-02-06T06:38:33.164Z,1004.55
2019-02-06T06:39:33.144Z,1004.59
2019-02-06T06:40:33.139Z,1004.62
2019-02-06T06:41:33.140Z,1004.64
2019-02-06T06:42:33.127Z,1004.65
2019-02-06T06:43:33.153Z,1004.63
2019-02-06T06:44:33.093Z,1004.64
2019-02-06T06:45:33.228Z,1004.60
2019-02-06T06:46:33.119Z,1004.57
2019-02-06T06:47:33.072Z,1004.54
2019-02-06T06:48:33.047Z,1004.55
2019-02-06T06:49:33.097Z,1004.50
2019-02-06T06:50:33.029Z,1004.50
2019-02-06T06:51:33.058Z,1004.45
2019-02-06T06:52:33.008Z,1004.51
2019-02-06T06:53:32.995Z,1004.55
2019-02-06T06:54:32.992Z,1004.53
2019-02-06T06:55:35.278Z,1004.59
2019-02-06T06:56:32.977Z,1004.57
2019-02-06T06:57:33.037Z,1004.55
2019-02-06T06:58:33.009Z,1004.52
2019-02-06T06:59:32.936Z,1004.55
2019-02-06T07:00:33.001Z,1004.56
2019-02-06T07:01:32.964Z,1004.52
2019-02-06T07:02:32.957Z,1004.52
2019-02-06T07:03:32.898Z,1004.53
2019-02-06T07:04:32.944Z,1004.53
2019-02-06T07:05:32.895Z,1004.54
2019-02-06T07:06:32.862Z,1004.62
2019-02-06T07:07:32.912Z,1004.63
2019-02-06T07:08:32.866Z,1004.64
2019-02-06T07:09:32.924Z,1004.67
2019-02-06T07:10:32.821Z,1004.65
2019-02-06T07:11:32.804Z,1004.63
2019-02-06T07:12:32.792Z,1004.66
2019-02-06T07:13:32.906Z,1004.57
2019-02-06T07:14:33.105Z,1004.67
2019-02-06T07:15:32.761Z,1004.64
2019-02-06T07:16:32.754Z,1004.66
2019-02-06T07:17:32.740Z,1004.66
2019-02-06T07:18:32.745Z,1004.67
2019-02-06T07:19:32.767Z,1004.68
2019-02-06T07:20:32.708Z,1004.64
2019-02-06T07:21:32.696Z,1004.64
2019-02-06T07:22:32.691Z,1004.64
2019-02-06T07:23:32.735Z,1004.69
2019-02-06T07:24:32.667Z,1004.70
2019-02-06T07:25:32.687Z,1004.72
2019-02-06T07:26:32.666Z,1004.72
2019-02-06T07:27:32.632Z,1004.78
2019-02-06T07:28:32.626Z,1004.77
2019-02-06T07:29:32.697Z,1004.78
2019-02-06T07:30:32.603Z,1004.80
2019-02-06T07:31:32.633Z,1004.77
2019-02-06T07:32:32.591Z,1004.82
2019-02-06T07:33:32.581Z,1004.74
2019-02-06T07:34:32.560Z,1004.67
2019-02-06T07:35:32.550Z,1004.73
2019-02-06T07:36:32.540Z,1004.71
2019-02-06T07:37:32.560Z,1004.72
2019-02-06T07:38:32.519Z,1004.73
2019-02-06T07:39:32.510Z,1004.79
2019-02-06T07:40:32.495Z,1004.73
2019-02-06T07:41:32.497Z,1004.74
2019-02-06T07:42:32.493Z,1004.78
2019-02-06T07:43:32.504Z,1004.83
2019-02-06T07:44:32.454Z,1004.78
2019-02-06T07:45:32.446Z,1004.77
2019-02-06T07:46:32.438Z,1004.77
2019-02-06T07:47:32.426Z,1004.71
2019-02-06T07:48:32.411Z,1004.70
2019-02-06T07:49:32.461Z,1004.67
2019-02-06T07:50:32.418Z,1004.72
2019-02-06T07:51:32.378Z,1004.73
2019-02-06T07:52:32.376Z,1004.71
2019-02-06T07:53:32.371Z,1004.79
2019-02-06T07:54:32.372Z,1004.83
2019-02-06T07:55:32.392Z,1004.74
2019-02-06T07:56:32.379Z,1004.70
2019-02-06T07:57:32.320Z,1004.68
2019-02-06T07:58:32.306Z,1004.73
2019-02-06T07:59:32.306Z,1004.78
2019-02-06T08:00:32.283Z,1004.68
2019-02-06T08:01:32.311Z,1004.74
2019-02-06T08:02:32.262Z,1004.76
2019-02-06T08:03:32.252Z,1004.78
2019-02-06T08:04:32.248Z,1004.79
2019-02-06T08:05:32.239Z,1004.75
2019-02-06T08:06:32.228Z,1004.74
2019-02-06T08:07:32.252Z,1004.71
2019-02-06T08:08:36.291Z,1004.76
2019-02-06T08:09:32.186Z,1004.73
2019-02-06T08:10:32.193Z,1004.64
2019-02-06T08:11:32.170Z,1004.68
2019-02-06T08:12:32.155Z,1004.66
2019-02-06T08:13:32.204Z,1004.66
2019-02-06T08:14:32.133Z,1004.61
2019-02-06T08:15:32.132Z,1004.64
2019-02-06T08:16:32.122Z,1004.69
2019-02-06T08:17:32.120Z,1004.68
2019-02-06T08:18:32.090Z,1004.65
2019-02-06T08:19:32.123Z,1004.72
2019-02-06T08:20:32.150Z,1004.71
2019-02-06T08:21:32.142Z,1004.68
2019-02-06T08:22:32.156Z,1004.70
2019-02-06T08:23:32.166Z,1004.68
2019-02-06T08:24:32.024Z,1004.63
2019-02-06T08:25:32.067Z,1004.67
2019-02-06T08:26:32.004Z,1004.66
2019-02-06T08:27:31.993Z,1004.64
2019-02-06T08:28:31.986Z,1004.64
2019-02-06T08:29:31.976Z,1004.63
2019-02-06T08:30:31.978Z,1004.66
2019-02-06T08:31:32.017Z,1004.63
2019-02-06T08:32:31.939Z,1004.59
2019-02-06T08:33:31.931Z,1004.57
2019-02-06T08:34:31.920Z,1004.61
2019-02-06T08:35:31.933Z,1004.62
2019-02-06T08:36:31.939Z,1004.63
2019-02-06T08:37:31.913Z,1004.61
2019-02-06T08:38:31.902Z,1004.57
2019-02-06T08:39:31.873Z,1004.51
2019-02-06T08:40:31.870Z,1004.52
2019-02-06T08:41:31.840Z,1004.42
2019-02-06T08:42:31.835Z,1004.47
2019-02-06T08:43:31.882Z,1004.45
2019-02-06T08:44:31.811Z,1004.38
2019-02-06T08:45:31.799Z,1004.35
2019-02-06T08:46:31.791Z,1004.33
2019-02-06T08:47:31.775Z,1004.33
2019-02-06T08:48:31.779Z,1004.32
2019-02-06T08:49:31.806Z,1004.33
2019-02-06T08:50:31.802Z,1004.30
2019-02-06T08:51:31.734Z,1004.27
2019-02-06T08:52:31.723Z,1004.33
2019-02-06T08:53:31.713Z,1004.27
2019-02-06T08:54:31.711Z,1004.19
2019-02-06T08:55:31.719Z,1004.18
2019-02-06T08:56:31.681Z,1004.17
2019-02-06T08:57:31.667Z,1004.20
2019-02-06T08:58:31.656Z,1004.09
2019-02-06T08:59:31.688Z,1004.07
2019-02-06T09:00:31.657Z,1004.04
2019-02-06T09:01:31.673Z,1004.00
2019-02-06T09:02:31.617Z,1003.94
2019-02-06T09:03:31.602Z,1004.00
2019-02-06T09:04:31.591Z,1003.92
2019-02-06T09:05:31.580Z,1003.94
2019-02-06T09:06:31.584Z,1003.97
2019-02-06T09:07:31.767Z,1003.90
2019-02-06T09:08:31.550Z,1003.93
2019-02-06T09:09:31.649Z,1003.95
2019-02-06T09:10:31.527Z,1003.91
2019-02-06T09:11:31.519Z,1003.95
2019-02-06T09:12:31.517Z,1003.99
2019-02-06T09:13:31.522Z,1004.01
2019-02-06T09:14:31.486Z,1003.99
2019-02-06T09:15:31.474Z,1004.02
2019-02-06T09:16:31.473Z,1004.01
2019-02-06T09:17:31.450Z,1004.00
2019-02-06T09:18:31.443Z,1003.99
2019-02-06T09:19:31.576Z,1004.00
2019-02-06T09:20:31.429Z,1003.99
2019-02-06T09:21:31.422Z,1003.98
2019-02-06T09:22:31.408Z,1004.04
2019-02-06T09:23:31.385Z,1004.03
2019-02-06T09:24:31.505Z,1004.04
2019-02-06T09:25:31.402Z,1004.15
2019-02-06T09:26:35.457Z,1004.13
2019-02-06T09:27:31.382Z,1004.11
2019-02-06T09:28:31.344Z,1004.21
2019-02-06T09:29:31.321Z,1004.16
2019-02-06T09:30:31.309Z,1004.18
2019-02-06T09:31:31.348Z,1004.13
2019-02-06T09:32:31.289Z,1004.17
2019-02-06T09:33:31.284Z,1004.18
2019-02-06T09:34:31.266Z,1004.20
2019-02-06T09:35:31.260Z,1004.23
2019-02-06T09:36:31.249Z,1004.26
2019-02-06T09:37:31.292Z,1004.35
2019-02-06T09:38:31.245Z,1004.37
2019-02-06T09:39:31.214Z,1004.35
2019-02-06T09:40:31.221Z,1004.39
2019-02-06T09:41:31.268Z,1004.43
2019-02-06T09:42:31.216Z,1004.43
2019-02-06T09:43:31.229Z,1004.37
2019-02-06T09:44:31.160Z,1004.43
2019-02-06T09:45:31.160Z,1004.40
2019-02-06T09:46:31.156Z,1004.41
2019-02-06T09:47:31.146Z,1004.38
2019-02-06T09:48:31.131Z,1004.43
2019-02-06T09:49:31.158Z,1004.44
2019-02-06T09:50:31.115Z,1004.39
2019-02-06T09:51:31.092Z,1004.44
2019-02-06T09:52:31.083Z,1004.47
2019-02-06T09:53:31.082Z,1004.50
2019-02-06T09:54:31.051Z,1004.49
2019-02-06T09:55:31.125Z,1004.49
2019-02-06T09:56:31.034Z,1004.44
2019-02-06T09:57:31.017Z,1004.42
2019-02-06T09:58:31.035Z,1004.45
2019-02-06T09:59:30.996Z,1004.44
2019-02-06T10:00:30.986Z,1004.50
2019-02-06T10:01:31.006Z,1004.47
2019-02-06T10:02:30.968Z,1004.46
2019-02-06T10:03:30.966Z,1004.41
2019-02-06T10:04:30.942Z,1004.47
2019-02-06T10:05:30.932Z,1004.47
2019-02-06T10:06:30.920Z,1004.51
2019-02-06T10:07:30.940Z,1004.41
2019-02-06T10:08:30.900Z,1004.46
2019-02-06T10:09:30.902Z,1004.44
2019-02-06T10:10:30.875Z,1004.38
2019-02-06T10:11:30.869Z,1004.44
2019-02-06T10:12:30.866Z,1004.44
2019-02-06T10:13:30.894Z,1004.39
2019-02-06T10:14:30.832Z,1004.50
2019-02-06T10:15:30.838Z,1004.45
2019-02-06T10:16:30.816Z,1004.51
2019-02-06T10:17:30.801Z,1004.48
2019-02-06T10:18:30.791Z,1004.57
2019-02-06T10:19:30.822Z,1004.63
2019-02-06T10:20:30.767Z,1004.64
2019-02-06T10:21:30.769Z,1004.67
2019-02-06T10:22:30.768Z,1004.73
2019-02-06T10:23:30.735Z,1004.69
2019-02-06T10:24:30.722Z,1004.70
2019-02-06T10:25:30.751Z,1004.70
2019-02-06T10:26:30.776Z,1004.70
2019-02-06T10:27:30.694Z,1004.74
2019-02-06T10:28:30.698Z,1004.74
2019-02-06T10:29:30.670Z,1004.77
2019-02-06T10:30:30.664Z,1004.79
2019-02-06T10:31:32.859Z,1004.84
2019-02-06T10:32:30.637Z,1004.85
2019-02-06T10:33:30.624Z,1004.88
2019-02-06T10:34:30.633Z,1004.84
2019-02-06T10:35:30.610Z,1004.75
2019-02-06T10:36:30.591Z,1004.74
2019-02-06T10:37:30.629Z,1004.81
2019-02-06T10:38:30.569Z,1004.71
2019-02-06T10:39:34.678Z,1004.69
2019-02-06T10:40:30.559Z,1004.63
2019-02-06T10:41:30.536Z,1004.66
2019-02-06T10:42:30.525Z,1004.60
2019-02-06T10:43:32.788Z,1004.61
2019-02-06T10:44:31.502Z,1004.65
2019-02-06T10:45:30.493Z,1004.56
2019-02-06T10:46:30.492Z,1004.61
2019-02-06T10:47:30.474Z,1004.58
2019-02-06T10:48:30.463Z,1004.48
2019-02-06T10:49:30.499Z,1004.46
2019-02-06T10:50:30.460Z,1004.48
2019-02-06T10:51:30.459Z,1004.46
2019-02-06T10:52:30.457Z,1004.48
2019-02-06T10:53:30.405Z,1004.46
2019-02-06T10:54:30.397Z,1004.49
2019-02-06T10:55:30.539Z,1004.51
2019-02-06T10:56:30.373Z,1004.47
2019-02-06T10:57:30.366Z,1004.49
2019-02-06T10:58:30.385Z,1004.44
2019-02-06T10:59:30.341Z,1004.45
2019-02-06T11:00:30.337Z,1004.44
2019-02-06T11:01:30.356Z,1004.42
2019-02-06T11:02:30.317Z,1004.41
2019-02-06T11:03:30.306Z,1004.38
2019-02-06T11:04:30.366Z,1004.32
2019-02-06T11:05:30.279Z,1004.32
2019-02-06T11:06:30.263Z,1004.28
2019-02-06T11:07:30.457Z,1004.31
2019-02-06T11:08:30.254Z,1004.27
2019-02-06T11:09:30.234Z,1004.31
2019-02-06T11:10:30.252Z,1004.31
2019-02-06T11:11:30.216Z,1004.31
2019-02-06T11:12:30.208Z,1004.25
2019-02-06T11:13:30.260Z,1004.31
2019-02-06T11:14:30.184Z,1004.32
2019-02-06T11:15:30.203Z,1004.38
2019-02-06T11:16:30.163Z,1004.34
2019-02-06T11:17:30.177Z,1004.37
2019-02-06T11:18:30.141Z,1004.38
2019-02-06T11:19:30.175Z,1004.33
2019-02-06T11:20:30.126Z,1004.25
2019-02-06T11:21:30.111Z,1004.30
2019-02-06T11:22:30.088Z,1004.22
2019-02-06T11:23:30.126Z,1004.22
2019-02-06T11:24:30.070Z,1004.19
2019-02-06T11:25:30.096Z,1004.22
2019-02-06T11:26:30.048Z,1004.13
2019-02-06T11:27:30.038Z,1004.13
2019-02-06T11:28:30.030Z,1004.14
2019-02-06T11:29:30.033Z,1004.14
2019-02-06T11:30:30.002Z,1004.14
2019-02-06T11:31:30.258Z,1004.09
2019-02-06T11:32:29.992Z,1004.08
2019-02-06T11:33:29.970Z,1004.11
2019-02-06T11:34:29.962Z,1004.03
2019-02-06T11:35:29.965Z,1003.99
2019-02-06T11:36:29.943Z,1004.03
2019-02-06T11:37:29.957Z,1004.01
2019-02-06T11:38:29.921Z,1004.00
2019-02-06T11:39:29.916Z,1003.98
2019-02-06T11:40:29.905Z,1004.02
2019-02-06T11:41:29.916Z,1003.94
2019-02-06T11:42:29.878Z,1004.01
2019-02-06T11:43:32.041Z,1004.01
2019-02-06T11:44:29.853Z,1004.00
2019-02-06T11:45:29.843Z,1003.93
2019-02-06T11:46:29.834Z,1003.92
2019-02-06T11:47:29.848Z,1003.92
2019-02-06T11:48:29.812Z,1003.88
2019-02-06T11:49:29.836Z,1003.92
2019-02-06T11:50:29.788Z,1003.86
2019-02-06T11:51:29.781Z,1003.87
2019-02-06T11:52:29.764Z,1003.88
2019-02-06T11:53:29.786Z,1003.83
2019-02-06T11:54:29.743Z,1003.84
2019-02-06T11:55:29.783Z,1003.85
2019-02-06T11:56:29.725Z,1003.82
2019-02-06T11:57:29.715Z,1003.82
2019-02-06T11:58:29.704Z,1003.84
2019-02-06T11:59:29.707Z,1003.78
2019-02-06T12:00:29.678Z,1003.77
2019-02-06T12:01:29.720Z,1003.87
2019-02-06T12:02:37.051Z,1003.85
2019-02-06T12:03:30.651Z,1003.89
2019-02-06T12:04:29.651Z,1003.91
2019-02-06T12:05:29.661Z,1003.87